createdAt,value
2019-02-22T00:00:09.286Z,15.17
2019-02-22T00:03:10.152Z,14.80
2019-02-22T00:06:10.708Z,15.33
2019-02-22T00:09:11.264Z,14.33
2019-02-22T00:12:11.631Z,14.50
2019-02-22T00:15:11.990Z,14.37
2019-02-22T00:18:12.549Z,14.83
2019-02-22T00:21:20.498Z,14.33
2019-02-22T00:24:20.896Z,14.00
2019-02-22T00:27:21.985Z,14.20
2019-02-22T00:30:23.294Z,14.40
2019-02-22T00:33:23.647Z,13.80
2019-02-22T00:36:24.136Z,15.37
2019-02-22T00:39:25.023Z,14.23
2019-02-22T00:42:25.919Z,14.63
2019-02-22T00:45:26.658Z,14.00
2019-02-22T00:48:27.085Z,15.07
2019-02-22T00:51:27.507Z,16.50
2019-02-22T00:54:28.331Z,17.60
2019-02-22T00:57:28.834Z,17.23
2019-02-22T01:00:29.957Z,16.47
2019-02-22T01:03:30.386Z,16.97
2019-02-22T01:06:30.716Z,15.43
2019-02-22T01:09:31.285Z,15.60
2019-02-22T01:12:32.098Z,14.63
2019-02-22T01:15:32.373Z,14.73
2019-02-22T01:18:33.005Z,14.73
2019-02-22T01:21:33.386Z,14.97
2019-02-22T01:24:34.072Z,14.87
2019-02-22T01:27:34.253Z,17.47
2019-02-22T01:30:35.273Z,14.50
2019-02-22T01:33:35.601Z,15.00
2019-02-22T01:36:35.869Z,15.73
2019-02-22T01:39:36.377Z,16.70
2019-02-22T01:42:36.874Z,17.17
2019-02-22T01:45:37.398Z,16.97
2019-02-22T01:48:37.857Z,16.63
2019-02-22T01:51:38.355Z,18.40
2019-02-22T01:54:38.689Z,17.70
2019-02-22T01:57:39.510Z,18.27
2019-02-22T02:00:40.565Z,16.67
2019-02-22T02:03:41.618Z,18.33
2019-02-22T02:06:42.764Z,19.57
2019-02-22T02:09:43.480Z,19.00
2019-02-22T02:12:44.324Z,18.17
2019-02-22T02:15:44.753Z,18.63
2019-02-22T02:18:45.021Z,19.83
2019-02-22T02:21:45.486Z,18.63
2019-02-22T02:24:45.916Z,19.20
2019-02-22T02:27:46.717Z,18.90
2019-02-22T02:30:47.043Z,18.50
2019-02-22T02:33:47.542Z,18.30
2019-02-22T02:36:48.023Z,18.13
2019-02-22T02:39:48.842Z,18.27
2019-02-22T02:42:49.317Z,18.13
2019-02-22T02:45:49.963Z,19.53
2019-02-22T02:48:50.773Z,18.77
2019-02-22T02:51:51.061Z,19.07
2019-02-22T02:54:51.523Z,18.60
2019-02-22T02:57:52.816Z,19.10
2019-02-22T03:00:53.495Z,18.73
2019-02-22T03:03:53.741Z,18.40
2019-02-22T03:07:13.491Z,17.90
2019-02-22T03:10:14.578Z,19.60
2019-02-22T03:13:15.811Z,19.83
2019-02-22T03:16:04.426Z,19.50
2019-02-22T03:19:12.374Z,19.20
2019-02-22T03:22:12.895Z,19.40
2019-02-22T03:25:13.313Z,19.33
2019-02-22T03:28:13.792Z,19.73
2019-02-22T03:31:14.884Z,19.07
2019-02-22T03:34:15.296Z,18.80
2019-02-22T03:37:16.187Z,19.90
2019-02-22T03:40:17.435Z,19.13
2019-02-22T03:43:18.591Z,19.37
2019-02-22T03:46:19.593Z,19.77
2019-02-22T03:49:20.007Z,19.33
2019-02-22T03:52:24.779Z,19.00
2019-02-22T03:55:25.678Z,19.40
2019-02-22T03:58:26.034Z,20.10
2019-02-22T04:01:26.306Z,19.67
2019-02-22T04:04:26.764Z,18.67
2019-02-22T04:07:27.534Z,20.13
2019-02-22T04:10:27.919Z,19.33
2019-02-22T04:13:28.414Z,20.80
2019-02-22T04:16:28.800Z,20.40
2019-02-22T04:19:29.075Z,19.83
2019-02-22T04:22:29.330Z,18.97
2019-02-22T04:25:29.714Z,20.80
2019-02-22T04:28:30.345Z,19.67
2019-02-22T04:31:31.534Z,20.40
2019-02-22T04:34:32.845Z,19.37
2019-02-22T04:37:33.146Z,19.40
2019-02-22T04:40:33.737Z,20.37
2019-02-22T04:43:34.015Z,20.60
2019-02-22T04:46:35.342Z,20.37
2019-02-22T04:49:23.884Z,21.87
2019-02-22T04:52:31.739Z,20.80
2019-02-22T04:55:32.782Z,20.57
2019-02-22T04:58:33.613Z,21.03
2019-02-22T05:01:34.354Z,21.33
2019-02-22T05:04:35.341Z,21.23
2019-02-22T05:07:35.837Z,20.93
2019-02-22T05:10:36.334Z,22.00
2019-02-22T05:13:36.969Z,21.17
2019-02-22T05:16:37.666Z,21.50
2019-02-22T05:19:26.270Z,21.07
2019-02-22T05:22:27.205Z,22.10
2019-02-22T05:25:27.598Z,21.17
2019-02-22T05:28:28.326Z,21.80
2019-02-22T05:31:28.778Z,22.07
2019-02-22T05:34:29.244Z,23.60
2019-02-22T05:37:30.490Z,24.17
2019-02-22T05:40:31.118Z,23.53
2019-02-22T05:43:31.754Z,23.73
2019-02-22T05:46:33.026Z,23.77
2019-02-22T05:49:33.450Z,24.33
2019-02-22T05:52:33.723Z,23.53
2019-02-22T05:55:34.790Z,24.93
2019-02-22T05:58:35.799Z,25.30
2019-02-22T06:01:36.824Z,25.40
2019-02-22T06:04:37.562Z,26.17
2019-02-22T06:07:38.354Z,24.17
2019-02-22T06:10:38.989Z,23.03
2019-02-22T06:13:39.674Z,22.47
2019-02-22T06:16:41.875Z,23.57
2019-02-22T06:19:42.698Z,23.10
2019-02-22T06:22:31.288Z,24.00
2019-02-22T06:28:46.689Z,22.70
2019-02-22T06:31:47.129Z,22.53
2019-02-22T06:34:47.531Z,24.73
2019-02-22T06:37:48.230Z,25.83
2019-02-22T06:40:48.664Z,24.83
2019-02-22T06:43:49.293Z,27.77
2019-02-22T06:46:49.822Z,28.63
2019-02-22T06:49:50.660Z,29.03
2019-02-22T06:52:51.293Z,28.67
2019-02-22T06:55:51.818Z,28.40
2019-02-22T06:58:52.401Z,29.47
2019-02-22T07:01:52.824Z,30.33
2019-02-22T07:04:53.170Z,32.10
2019-02-22T07:07:53.613Z,30.97
2019-02-22T07:10:55.808Z,30.63
2019-02-22T07:13:56.333Z,31.63
2019-02-22T07:16:56.998Z,32.93
2019-02-22T07:19:57.828Z,33.90
2019-02-22T07:22:58.621Z,36.23
2019-02-22T07:25:59.242Z,36.00
2019-02-22T07:28:59.674Z,35.10
2019-02-22T07:32:05.826Z,35.20
2019-02-22T07:35:02.707Z,35.77
2019-02-22T07:38:03.478Z,35.60
2019-02-22T07:41:03.752Z,35.07
2019-02-22T07:44:04.211Z,34.47
2019-02-22T07:47:04.592Z,35.57
2019-02-22T07:50:05.278Z,35.97
2019-02-22T07:53:05.929Z,36.20
2019-02-22T07:56:06.451Z,40.03
2019-02-22T07:59:07.281Z,39.73
2019-02-22T08:02:08.041Z,40.57
2019-02-22T08:05:09.276Z,41.83
2019-02-22T08:08:10.114Z,39.87
2019-02-22T08:11:10.929Z,40.07
2019-02-22T08:14:11.395Z,39.70
2019-02-22T08:17:14.630Z,38.43
2019-02-22T08:20:14.601Z,38.67
2019-02-22T08:23:15.157Z,39.77
2019-02-22T08:26:15.525Z,39.10
2019-02-22T08:29:15.855Z,41.20
2019-02-22T08:32:16.181Z,42.13
2019-02-22T08:35:16.897Z,41.43
2019-02-22T08:38:17.580Z,41.93
2019-02-22T08:41:18.126Z,40.50
2019-02-22T08:44:18.572Z,43.50
2019-02-22T08:47:18.952Z,41.43
2019-02-22T08:50:19.206Z,44.03
2019-02-22T08:53:19.942Z,43.83
2019-02-22T08:56:20.205Z,43.83
2019-02-22T08:59:20.629Z,42.97
2019-02-22T09:02:21.009Z,41.63
2019-02-22T09:05:21.385Z,45.87
2019-02-22T09:08:22.638Z,46.07
2019-02-22T09:11:23.873Z,44.93
2019-02-22T09:14:24.739Z,44.07
2019-02-22T09:17:25.185Z,42.90
2019-02-22T09:20:25.998Z,42.97
2019-02-22T09:23:26.538Z,42.73
2019-02-22T09:26:27.212Z,43.27
2019-02-22T09:29:27.860Z,41.73
2019-02-22T09:32:28.618Z,41.37
2019-02-22T09:35:29.047Z,43.17
2019-02-22T09:38:30.303Z,42.37
2019-02-22T09:41:30.888Z,42.37
2019-02-22T09:44:31.970Z,39.77
2019-02-22T09:47:32.363Z,39.70
2019-02-22T09:50:33.646Z,41.53
2019-02-22T09:53:33.901Z,38.10
2019-02-22T09:56:34.300Z,37.77
2019-02-22T09:59:34.740Z,35.60
2019-02-22T10:02:35.306Z,36.70
2019-02-22T10:05:35.950Z,35.33
2019-02-22T10:08:36.313Z,35.37
2019-02-22T10:11:36.653Z,35.53
2019-02-22T10:14:37.185Z,33.90
2019-02-22T10:17:37.955Z,31.63
2019-02-22T10:20:38.635Z,31.63
2019-02-22T10:23:39.107Z,29.27
2019-02-22T10:26:39.863Z,30.70
2019-02-22T10:29:40.905Z,29.93
2019-02-22T10:32:41.359Z,29.50
2019-02-22T10:35:42.244Z,30.10
2019-02-22T10:38:42.810Z,29.40
2019-02-22T10:41:43.322Z,26.70
2019-02-22T10:44:43.875Z,27.23
2019-02-22T10:47:44.326Z,27.47
2019-02-22T10:50:45.518Z,25.30
2019-02-22T10:53:45.942Z,24.40
2019-02-22T10:56:46.321Z,23.87
2019-02-22T10:59:46.793Z,21.17
2019-02-22T11:02:47.313Z,20.30
2019-02-22T11:05:48.366Z,21.30
2019-02-22T11:08:50.786Z,22.53
2019-02-22T11:11:51.313Z,22.00
2019-02-22T11:14:52.130Z,20.40
2019-02-22T11:17:52.837Z,18.83
2019-02-22T11:20:53.910Z,21.47
2019-02-22T11:23:54.521Z,18.00
2019-02-22T11:26:55.588Z,15.72
2019-02-22T11:29:57.233Z,14.50
2019-02-22T11:35:42.514Z,13.03
2019-02-22T11:38:43.906Z,14.83
2019-02-22T11:41:45.157Z,15.05
2019-02-22T11:44:46.700Z,14.80
2019-02-22T11:47:48.200Z,15.88
2019-02-22T11:50:49.814Z,16.57
2019-02-22T11:53:51.021Z,16.00
2019-02-22T11:56:51.283Z,15.53
2019-02-22T11:59:52.446Z,15.90
2019-02-22T12:02:53.493Z,15.83
2019-02-22T12:05:53.962Z,15.87
2019-02-22T12:08:55.154Z,16.33
2019-02-22T12:11:56.007Z,17.10
2019-02-22T12:14:56.904Z,17.07
2019-02-22T12:17:58.142Z,17.23
2019-02-22T12:20:59.694Z,16.27
2019-02-22T12:24:00.712Z,15.40
2019-02-22T12:27:01.128Z,15.13
2019-02-22T12:30:02.015Z,16.67
2019-02-22T12:33:02.945Z,15.77
2019-02-22T12:36:03.775Z,15.23
2019-02-22T12:39:05.360Z,14.53
2019-02-22T12:42:05.916Z,14.00
2019-02-22T12:45:06.307Z,13.13
2019-02-22T12:48:07.540Z,13.53
2019-02-22T12:51:08.205Z,14.13
2019-02-22T12:54:08.723Z,13.30
2019-02-22T12:57:09.085Z,13.53
2019-02-22T13:00:10.250Z,14.93
2019-02-22T13:03:10.614Z,13.87
2019-02-22T13:06:10.873Z,14.27
2019-02-22T13:09:11.344Z,14.87
2019-02-22T13:12:14.202Z,15.50
2019-02-22T13:15:14.850Z,17.30
2019-02-22T13:18:15.220Z,17.67
2019-02-22T13:21:15.522Z,18.23
2019-02-22T13:24:16.466Z,18.27
2019-02-22T13:27:16.817Z,17.77
2019-02-22T13:30:17.916Z,18.50
2019-02-22T13:33:18.712Z,18.97
2019-02-22T13:36:19.210Z,18.10
2019-02-22T13:39:19.537Z,18.80
2019-02-22T13:42:19.838Z,18.07
2019-02-22T13:45:26.540Z,17.50
2019-02-22T13:48:23.607Z,18.13
2019-02-22T13:51:24.298Z,17.93
2019-02-22T13:54:25.466Z,17.32
2019-02-22T13:57:26.556Z,16.77
2019-02-22T14:00:28.172Z,16.20
2019-02-22T14:03:28.973Z,14.85
2019-02-22T14:06:30.648Z,12.55
2019-02-22T14:09:31.826Z,12.80
2019-02-22T14:12:32.946Z,14.40
2019-02-22T14:15:38.139Z,13.43
2019-02-22T14:18:36.085Z,14.00
2019-02-22T14:21:37.098Z,14.63
2019-02-22T14:24:38.289Z,15.00
2019-02-22T14:27:39.639Z,21.33
2019-02-22T14:30:40.903Z,19.47
2019-02-22T14:33:41.246Z,48.83
2019-02-22T14:36:41.556Z,44.73
2019-02-22T14:39:41.853Z,16.63
2019-02-22T14:42:42.527Z,14.13
2019-02-22T14:45:49.245Z,15.10
2019-02-22T14:48:46.445Z,15.65
2019-02-22T14:51:47.333Z,11.78
2019-02-22T14:54:47.678Z,13.40
2019-02-22T14:57:48.281Z,11.60
2019-02-22T15:00:49.450Z,15.10
2019-02-22T15:03:50.224Z,12.17
2019-02-22T15:06:50.682Z,14.43
2019-02-22T15:09:51.230Z,16.00
2019-02-22T15:12:51.765Z,12.70
2019-02-22T15:16:11.399Z,24.57
2019-02-22T15:19:17.130Z,13.83
2019-02-22T15:22:17.512Z,13.97
2019-02-22T15:25:18.795Z,12.50
2019-02-22T15:28:20.337Z,12.53
2019-02-22T15:31:08.962Z,12.23
2019-02-22T15:34:17.044Z,12.67
2019-02-22T15:37:18.284Z,13.50
2019-02-22T15:40:18.635Z,13.50
2019-02-22T15:43:19.371Z,13.43
2019-02-22T15:46:19.911Z,12.40
2019-02-22T15:49:20.618Z,13.50
2019-02-22T15:52:21.825Z,12.43
2019-02-22T15:55:22.853Z,13.00
2019-02-22T15:58:24.114Z,11.37
2019-02-22T16:01:24.624Z,12.97
2019-02-22T16:07:44.682Z,10.77
2019-02-22T16:10:42.419Z,10.17
2019-02-22T16:13:43.410Z,9.50
2019-02-22T16:16:43.922Z,9.67
2019-02-22T16:19:44.643Z,9.53
2019-02-22T16:22:45.839Z,9.70
2019-02-22T16:25:46.265Z,10.33
2019-02-22T16:28:47.008Z,10.77
2019-02-22T16:31:47.619Z,11.07
2019-02-22T16:34:48.506Z,10.47
2019-02-22T16:37:48.813Z,11.30
2019-02-22T16:40:49.497Z,11.17
2019-02-22T16:43:50.247Z,11.40
2019-02-22T16:46:50.791Z,11.33
2019-02-22T16:49:51.773Z,12.17
2019-02-22T16:52:53.127Z,17.13
2019-02-22T16:55:54.363Z,14.17
2019-02-22T16:58:55.198Z,14.83
2019-02-22T17:01:55.869Z,14.87
2019-02-22T17:04:56.089Z,15.30
2019-02-22T17:07:56.839Z,15.77
2019-02-22T17:10:57.588Z,13.73
2019-02-22T17:13:58.084Z,12.27
2019-02-22T17:16:58.782Z,12.40
2019-02-22T17:20:00.013Z,13.50
2019-02-22T17:23:00.726Z,13.20
2019-02-22T17:26:01.031Z,13.07
2019-02-22T17:29:02.369Z,12.70
2019-02-22T17:32:03.083Z,14.17
2019-02-22T17:35:03.506Z,13.57
2019-02-22T17:38:03.903Z,12.27
2019-02-22T17:41:05.333Z,10.67
2019-02-22T17:44:06.242Z,13.63
2019-02-22T17:47:06.727Z,13.00
2019-02-22T17:50:07.257Z,13.43
2019-02-22T17:52:57.559Z,12.60
2019-02-22T17:55:44.790Z,13.57
2019-02-22T17:58:33.733Z,16.27
2019-02-22T18:01:21.170Z,17.70
2019-02-22T18:04:08.142Z,18.47
2019-02-22T18:06:55.211Z,32.43
2019-02-22T18:09:42.657Z,26.43
2019-02-22T18:12:30.005Z,39.77
2019-02-22T18:15:17.920Z,16.60
2019-02-22T18:18:05.348Z,14.03
2019-02-22T18:20:52.746Z,12.23
2019-02-22T18:23:39.892Z,14.73
2019-02-22T18:26:27.086Z,14.53
2019-02-22T18:29:14.091Z,27.53
2019-02-22T18:32:01.466Z,17.77
2019-02-22T18:34:48.450Z,20.90
2019-02-22T18:37:35.876Z,17.37
2019-02-22T18:40:23.530Z,16.30
2019-02-22T18:43:10.229Z,18.73
2019-02-22T18:45:57.674Z,20.20
2019-02-22T18:48:44.982Z,16.87
2019-02-22T18:51:32.202Z,17.90
2019-02-22T18:54:19.494Z,17.37
2019-02-22T18:57:06.923Z,17.00
2019-02-22T18:59:54.139Z,17.40
2019-02-22T19:02:40.884Z,16.90
2019-02-22T19:05:28.288Z,17.60
2019-02-22T19:08:15.575Z,17.27
2019-02-22T19:11:02.592Z,16.53
2019-02-22T19:13:49.603Z,16.93
2019-02-22T19:16:36.646Z,14.47
2019-02-22T19:19:23.609Z,16.00
2019-02-22T19:22:10.889Z,20.87
2019-02-22T19:24:57.843Z,18.00
2019-02-22T19:27:46.459Z,18.90
2019-02-22T19:30:33.193Z,22.23
2019-02-22T19:33:20.114Z,20.87
2019-02-22T19:36:07.125Z,20.80
2019-02-22T19:38:54.253Z,22.40
2019-02-22T19:41:41.696Z,22.23
2019-02-22T19:44:28.705Z,21.40
2019-02-22T19:47:15.910Z,21.77
2019-02-22T19:50:04.017Z,20.90
2019-02-22T19:52:51.193Z,21.13
2019-02-22T19:55:38.211Z,22.43
2019-02-22T19:58:25.429Z,34.87
2019-02-22T20:01:12.588Z,30.47
2019-02-22T20:03:59.849Z,26.03
2019-02-22T20:06:47.073Z,28.20
2019-02-22T20:09:34.166Z,22.93
2019-02-22T20:12:21.172Z,22.80
2019-02-22T20:15:11.338Z,23.13
2019-02-22T20:17:58.150Z,22.30
2019-02-22T20:20:45.184Z,20.97
2019-02-22T20:23:32.831Z,24.33
2019-02-22T20:26:20.579Z,25.02
2019-02-22T20:29:07.929Z,24.60
2019-02-22T20:31:55.365Z,24.17
2019-02-22T20:34:42.793Z,21.47
2019-02-22T20:37:29.688Z,20.27
2019-02-22T20:40:16.979Z,16.93
2019-02-22T20:43:04.132Z,16.43
2019-02-22T20:45:51.719Z,15.90
2019-02-22T20:48:39.217Z,15.23
2019-02-22T20:51:26.926Z,15.97
2019-02-22T20:54:14.350Z,15.88
2019-02-22T20:57:02.199Z,15.40
2019-02-22T20:59:49.627Z,15.50
2019-02-22T21:02:37.245Z,16.10
2019-02-22T21:05:24.522Z,14.60
2019-02-22T21:08:11.942Z,18.67
2019-02-22T21:10:59.580Z,15.75
2019-02-22T21:13:47.198Z,15.57
2019-02-22T21:16:34.830Z,15.30
2019-02-22T21:19:22.191Z,16.67
2019-02-22T21:22:09.362Z,15.83
2019-02-22T21:24:56.389Z,17.13
2019-02-22T21:27:43.682Z,14.77
2019-02-22T21:30:31.500Z,16.25
2019-02-22T21:33:18.878Z,15.47
2019-02-22T21:36:06.298Z,14.90
2019-02-22T21:38:53.698Z,19.93
2019-02-22T21:41:40.979Z,22.40
2019-02-22T21:44:27.961Z,21.73
2019-02-22T21:47:15.199Z,20.90
2019-02-22T21:50:03.116Z,18.17
2019-02-22T21:52:50.444Z,19.17
2019-02-22T21:55:38.192Z,17.37
2019-02-22T21:58:25.619Z,16.60
2019-02-22T22:01:12.997Z,14.07
2019-02-22T22:04:00.386Z,17.57
2019-02-22T22:06:47.199Z,17.10
2019-02-22T22:09:34.722Z,19.27
2019-02-22T22:12:22.390Z,19.80
2019-02-22T22:15:11.746Z,20.95
2019-02-22T22:17:59.458Z,21.23
2019-02-22T22:20:46.901Z,20.48
2019-02-22T22:23:34.166Z,23.27
2019-02-22T22:26:21.478Z,21.95
2019-02-22T22:29:09.154Z,17.47
2019-02-22T22:31:56.414Z,16.53
2019-02-22T22:34:43.892Z,16.17
2019-02-22T22:37:31.022Z,15.30
2019-02-22T22:40:18.239Z,17.00
2019-02-22T22:43:05.953Z,16.95
2019-02-22T22:45:53.136Z,17.10
2019-02-22T22:48:50.197Z,16.30
2019-02-22T22:51:29.480Z,16.30
2019-02-22T22:54:16.780Z,16.70
2019-02-22T22:57:04.614Z,17.32
2019-02-22T22:59:52.443Z,18.20
2019-02-22T23:02:40.065Z,18.95
2019-02-22T23:05:27.386Z,18.93
2019-02-22T23:08:14.840Z,17.50
2019-02-22T23:11:02.870Z,16.83
2019-02-22T23:13:50.156Z,16.03
2019-02-22T23:16:37.514Z,15.00
2019-02-22T23:19:24.888Z,18.50
2019-02-22T23:22:12.540Z,16.20
2019-02-22T23:24:59.646Z,17.40
2019-02-22T23:27:46.949Z,16.50
2019-02-22T23:30:34.943Z,17.12
2019-02-22T23:33:22.534Z,19.05
2019-02-22T23:36:10.052Z,18.20
2019-02-22T23:38:56.854Z,20.37
2019-02-22T23:41:44.298Z,18.45
2019-02-22T23:44:31.894Z,17.48
2019-02-22T23:47:19.178Z,18.90
2019-02-22T23:50:07.952Z,20.57
2019-02-22T23:52:55.402Z,19.42
2019-02-22T23:55:42.439Z,16.30
2019-02-22T23:58:29.695Z,17.20
